createdAt,value
2019-04-04T00:00:47.785Z,5.10
2019-04-04T00:03:34.003Z,4.70
2019-04-04T00:06:20.112Z,4.77
2019-04-04T00:09:11.360Z,5.53
2019-04-04T00:11:57.931Z,5.33
2019-04-04T00:14:44.419Z,5.47
2019-04-04T00:17:31.347Z,5.07
2019-04-04T00:20:17.446Z,5.90
2019-04-04T00:23:05.042Z,6.07
2019-04-04T00:25:52.343Z,6.03
2019-04-04T00:28:38.699Z,5.33
2019-04-04T00:31:24.687Z,5.40
2019-04-04T00:34:13.684Z,5.80
2019-04-04T00:36:59.722Z,6.27
2019-04-04T00:39:46.183Z,5.77
2019-04-04T00:42:33.616Z,5.77
2019-04-04T00:45:19.924Z,6.10
2019-04-04T00:48:06.680Z,5.60
2019-04-04T00:50:54.884Z,5.50
2019-04-04T00:53:42.991Z,5.67
2019-04-04T00:56:28.943Z,5.67
2019-04-04T00:59:16.980Z,5.83
2019-04-04T01:02:03.273Z,6.27
2019-04-04T01:04:49.521Z,6.73
2019-04-04T01:07:36.464Z,6.87
2019-04-04T01:10:22.389Z,6.93
2019-04-04T01:13:08.352Z,6.43
2019-04-04T01:15:54.664Z,6.73
2019-04-04T01:18:40.984Z,7.63
2019-04-04T01:21:27.744Z,7.50
2019-04-04T01:24:14.300Z,7.33
2019-04-04T01:27:01.665Z,7.47
2019-04-04T01:29:47.920Z,7.83
2019-04-04T01:32:34.440Z,8.10
2019-04-04T01:35:22.802Z,7.60
2019-04-04T01:38:11.952Z,8.23
2019-04-04T01:40:57.925Z,8.37
2019-04-04T01:43:44.261Z,8.37
2019-04-04T01:46:30.701Z,9.30
2019-04-04T01:49:16.823Z,9.67
2019-04-04T01:52:03.148Z,10.87
2019-04-04T01:54:49.765Z,11.27
2019-04-04T01:57:38.564Z,10.17
2019-04-04T02:00:24.484Z,9.43
2019-04-04T02:03:11.336Z,10.60
2019-04-04T02:05:58.695Z,10.60
2019-04-04T02:08:45.300Z,10.87
2019-04-04T02:11:32.003Z,10.23
2019-04-04T02:14:19.581Z,11.50
2019-04-04T02:17:06.140Z,12.33
2019-04-04T02:19:55.614Z,10.93
2019-04-04T02:22:41.224Z,11.97
2019-04-04T02:25:27.325Z,12.53
2019-04-04T02:28:13.887Z,10.97
2019-04-04T02:31:00.973Z,11.70
2019-04-04T02:33:47.762Z,10.20
2019-04-04T02:36:34.646Z,10.13
2019-04-04T02:39:21.568Z,10.43
2019-04-04T02:42:07.918Z,9.30
2019-04-04T02:44:54.153Z,9.87
2019-04-04T02:47:40.506Z,10.33
2019-04-04T02:50:26.751Z,10.70
2019-04-04T02:53:13.418Z,11.13
2019-04-04T02:56:03.387Z,12.50
2019-04-04T02:58:49.490Z,11.37
2019-04-04T03:01:36.263Z,12.37
2019-04-04T03:04:22.603Z,11.43
2019-04-04T03:07:08.829Z,12.67
2019-04-04T03:09:55.225Z,12.50
2019-04-04T03:12:41.704Z,11.97
2019-04-04T03:15:27.903Z,13.30
2019-04-04T03:18:14.448Z,13.77
2019-04-04T03:21:00.916Z,11.23
2019-04-04T03:23:47.763Z,11.70
2019-04-04T03:26:34.123Z,12.10
2019-04-04T03:29:20.733Z,13.07
2019-04-04T03:32:13.200Z,14.53
2019-04-04T03:34:56.048Z,13.83
2019-04-04T03:37:46.024Z,14.33
2019-04-04T03:40:31.361Z,13.73
2019-04-04T03:43:17.897Z,12.27
2019-04-04T03:46:05.230Z,13.63
2019-04-04T03:48:51.640Z,13.30
2019-04-04T03:51:38.470Z,13.53
2019-04-04T03:54:26.635Z,13.80
2019-04-04T03:57:12.797Z,13.43
2019-04-04T03:59:59.122Z,14.67
2019-04-04T04:02:49.719Z,14.40
2019-04-04T04:05:35.829Z,13.23
2019-04-04T04:08:22.263Z,15.57
2019-04-04T04:11:09.258Z,15.17
2019-04-04T04:13:55.450Z,14.87
2019-04-04T04:16:41.775Z,15.10
2019-04-04T04:19:30.986Z,14.80
2019-04-04T04:22:19.364Z,14.63
2019-04-04T04:25:05.934Z,14.60
2019-04-04T04:27:52.907Z,15.13
2019-04-04T04:30:40.596Z,14.97
2019-04-04T04:33:29.278Z,17.07
2019-04-04T04:36:19.860Z,17.07
2019-04-04T04:39:06.534Z,16.53
2019-04-04T04:41:54.412Z,16.30
2019-04-04T04:44:41.014Z,17.07
2019-04-04T04:47:27.609Z,17.50
2019-04-04T04:50:14.186Z,17.43
2019-04-04T04:53:01.214Z,18.30
2019-04-04T04:55:51.734Z,18.43
2019-04-04T04:58:38.095Z,18.43
2019-04-04T05:01:26.930Z,20.20
2019-04-04T05:04:15.491Z,19.87
2019-04-04T05:07:02.058Z,32.70
2019-04-04T05:09:51.495Z,20.23
2019-04-04T05:12:40.348Z,23.30
2019-04-04T05:15:26.962Z,24.23
2019-04-04T05:18:14.171Z,22.53
2019-04-04T05:21:02.639Z,24.37
2019-04-04T05:23:49.182Z,22.57
2019-04-04T05:26:38.765Z,26.77
2019-04-04T05:29:24.926Z,28.90
2019-04-04T05:32:11.658Z,26.33
2019-04-04T05:35:00.951Z,27.73
2019-04-04T05:37:46.962Z,29.10
2019-04-04T05:40:36.441Z,28.17
2019-04-04T05:43:22.925Z,26.00
2019-04-04T05:46:11.778Z,29.53
2019-04-04T05:49:00.712Z,32.77
2019-04-04T05:51:48.440Z,33.73
2019-04-04T05:54:38.747Z,35.50
2019-04-04T05:57:25.738Z,32.03
2019-04-04T06:00:14.435Z,28.53
2019-04-04T06:03:00.498Z,25.93
2019-04-04T06:05:49.732Z,27.27
2019-04-04T06:08:39.193Z,25.33
2019-04-04T06:11:28.818Z,26.13
2019-04-04T06:14:20.445Z,20.97
2019-04-04T06:17:07.240Z,20.03
2019-04-04T06:19:56.363Z,19.57
2019-04-04T06:22:45.307Z,18.63
2019-04-04T06:25:35.692Z,20.07
2019-04-04T06:28:21.094Z,18.37
2019-04-04T06:31:07.642Z,15.77
2019-04-04T06:33:54.191Z,17.87
2019-04-04T06:36:41.216Z,18.23
2019-04-04T06:39:30.232Z,19.97
2019-04-04T06:42:16.630Z,20.07
2019-04-04T06:45:05.433Z,22.97
2019-04-04T06:47:52.190Z,24.30
2019-04-04T06:50:42.973Z,18.83
2019-04-04T06:53:29.850Z,17.57
2019-04-04T06:56:16.273Z,16.03
2019-04-04T06:59:02.779Z,18.43
2019-04-04T07:01:51.938Z,18.67
2019-04-04T07:04:39.991Z,21.37
2019-04-04T07:07:26.826Z,25.80
2019-04-04T07:10:16.382Z,19.67
2019-04-04T07:13:14.913Z,18.57
2019-04-04T07:16:06.042Z,17.93
2019-04-04T07:18:40.975Z,18.07
2019-04-04T07:21:28.159Z,17.83
2019-04-04T07:24:14.607Z,18.60
2019-04-04T07:27:01.088Z,18.13
2019-04-04T07:29:47.558Z,17.43
2019-04-04T07:32:33.575Z,18.43
2019-04-04T07:35:21.105Z,16.43
2019-04-04T07:38:09.335Z,17.20
2019-04-04T07:40:56.727Z,16.40
2019-04-04T07:43:43.269Z,17.47
2019-04-04T07:46:32.931Z,17.53
2019-04-04T07:49:21.136Z,17.00
2019-04-04T07:52:08.630Z,17.80
2019-04-04T07:54:55.394Z,17.60
2019-04-04T07:57:42.703Z,17.63
2019-04-04T08:00:29.034Z,18.70
2019-04-04T08:03:17.687Z,16.17
2019-04-04T08:06:04.657Z,16.50
2019-04-04T08:08:52.018Z,16.90
2019-04-04T08:11:38.425Z,18.40
2019-04-04T08:14:25.179Z,18.70
2019-04-04T08:17:11.387Z,18.10
2019-04-04T08:19:59.794Z,18.37
2019-04-04T08:22:48.509Z,19.37
2019-04-04T08:25:35.175Z,21.17
2019-04-04T08:28:22.967Z,18.80
2019-04-04T08:31:10.471Z,20.40
2019-04-04T08:33:59.659Z,20.73
2019-04-04T08:36:45.762Z,21.40
2019-04-04T08:39:32.287Z,21.07
2019-04-04T08:42:18.359Z,23.47
2019-04-04T08:45:04.982Z,22.40
2019-04-04T08:47:51.751Z,22.07
2019-04-04T08:50:39.206Z,22.67
2019-04-04T08:53:38.879Z,20.93
2019-04-04T08:56:14.201Z,22.27
2019-04-04T08:59:00.899Z,21.40
2019-04-04T09:01:47.736Z,21.47
2019-04-04T09:04:34.051Z,22.40
2019-04-04T09:07:20.240Z,23.47
2019-04-04T09:10:07.651Z,22.60
2019-04-04T09:12:57.800Z,23.40
2019-04-04T09:15:43.983Z,23.23
2019-04-04T09:18:32.635Z,24.10
2019-04-04T09:21:19.622Z,24.23
2019-04-04T09:24:06.777Z,25.77
2019-04-04T09:26:56.207Z,25.73
2019-04-04T09:29:42.911Z,23.33
2019-04-04T09:32:29.304Z,25.77
2019-04-04T09:35:20.331Z,25.90
2019-04-04T09:38:07.278Z,26.17
2019-04-04T09:40:53.723Z,25.77
2019-04-04T09:43:42.630Z,24.70
2019-04-04T09:46:31.243Z,23.80
2019-04-04T09:49:17.942Z,23.53
2019-04-04T09:52:04.208Z,25.13
2019-04-04T09:54:52.771Z,24.70
2019-04-04T09:57:39.611Z,24.70
2019-04-04T10:00:28.187Z,25.67
2019-04-04T10:03:16.818Z,23.63
2019-04-04T10:06:05.395Z,26.67
2019-04-04T10:08:51.715Z,25.17
2019-04-04T10:11:38.690Z,20.97
2019-04-04T10:14:25.856Z,17.40
2019-04-04T10:17:12.488Z,17.80
2019-04-04T10:19:58.876Z,15.93
2019-04-04T10:22:45.874Z,16.70
2019-04-04T10:25:32.207Z,17.60
2019-04-04T10:28:18.571Z,16.47
2019-04-04T10:31:09.531Z,17.87
2019-04-04T10:33:57.848Z,18.13
2019-04-04T10:36:44.531Z,17.77
2019-04-04T10:39:32.802Z,17.53
2019-04-04T10:42:20.338Z,19.67
2019-04-04T10:45:07.804Z,17.97
2019-04-04T10:47:54.360Z,16.57
2019-04-04T10:50:40.488Z,16.97
2019-04-04T10:53:26.919Z,17.00
2019-04-04T10:56:13.979Z,16.97
2019-04-04T10:59:00.520Z,19.13
2019-04-04T11:01:46.483Z,18.00
2019-04-04T11:04:33.075Z,18.93
2019-04-04T11:07:19.063Z,18.00
2019-04-04T11:10:05.967Z,18.47
2019-04-04T11:12:52.444Z,16.20
2019-04-04T11:15:39.209Z,18.40
2019-04-04T11:18:26.104Z,17.97
2019-04-04T11:21:12.302Z,17.93
2019-04-04T11:23:58.664Z,16.97
2019-04-04T11:29:29.378Z,18.23
2019-04-04T11:32:15.581Z,19.50
2019-04-04T11:35:02.670Z,21.00
2019-04-04T11:37:49.894Z,18.77
2019-04-04T11:40:38.729Z,17.67
2019-04-04T11:43:25.697Z,20.20
2019-04-04T11:46:13.126Z,20.87
2019-04-04T11:48:59.344Z,20.97
2019-04-04T11:51:46.061Z,23.33
2019-04-04T11:54:34.308Z,22.37
2019-04-04T11:57:23.846Z,24.77
2019-04-04T12:00:14.391Z,23.47
2019-04-04T12:03:00.817Z,24.57
2019-04-04T12:05:47.031Z,26.17
2019-04-04T12:08:33.546Z,25.97
2019-04-04T12:11:22.435Z,28.23
2019-04-04T12:14:08.105Z,28.40
2019-04-04T12:16:55.540Z,28.23
2019-04-04T12:19:41.713Z,31.30
2019-04-04T12:22:28.737Z,30.13
2019-04-04T12:25:17.624Z,31.33
2019-04-04T12:28:06.546Z,32.13
2019-04-04T12:30:55.005Z,30.00
2019-04-04T12:33:44.225Z,32.00
2019-04-04T12:36:30.946Z,30.93
2019-04-04T12:39:19.098Z,32.27
2019-04-04T12:42:06.146Z,30.83
2019-04-04T12:44:52.037Z,27.87
2019-04-04T12:47:38.340Z,26.70
2019-04-04T12:50:25.299Z,25.73
2019-04-04T12:53:15.341Z,25.70
2019-04-04T12:56:02.566Z,25.17
2019-04-04T12:58:49.362Z,28.20
2019-04-04T13:01:37.830Z,26.63
2019-04-04T13:04:31.550Z,27.50
2019-04-04T13:07:13.114Z,28.43
2019-04-04T13:10:10.862Z,28.67
2019-04-04T13:12:47.960Z,24.03
2019-04-04T13:15:34.187Z,22.10
2019-04-04T13:18:20.783Z,22.53
2019-04-04T13:21:08.294Z,21.60
2019-04-04T13:23:55.230Z,22.17
2019-04-04T13:26:44.613Z,22.53
2019-04-04T13:29:31.306Z,21.20
2019-04-04T13:32:17.934Z,22.37
2019-04-04T13:35:05.818Z,20.30
2019-04-04T13:37:57.162Z,18.57
2019-04-04T13:40:45.762Z,17.50
2019-04-04T13:43:32.482Z,16.77
2019-04-04T13:46:18.489Z,16.90
2019-04-04T13:49:04.889Z,17.60
2019-04-04T13:51:53.107Z,17.07
2019-04-04T13:54:40.442Z,18.53
2019-04-04T13:57:26.575Z,18.03
2019-04-04T14:00:13.734Z,16.53
2019-04-04T14:02:59.851Z,18.27
2019-04-04T14:05:49.715Z,17.00
2019-04-04T14:08:39.428Z,17.73
2019-04-04T14:11:25.843Z,17.50
2019-04-04T14:14:12.366Z,17.33
2019-04-04T14:16:58.569Z,18.90
2019-04-04T14:19:44.871Z,18.70
2019-04-04T14:22:32.389Z,18.87
2019-04-04T14:25:19.777Z,18.13
2019-04-04T14:28:06.050Z,19.00
2019-04-04T14:30:52.533Z,19.43
2019-04-04T14:33:40.226Z,19.97
2019-04-04T14:36:29.735Z,21.40
2019-04-04T14:39:15.908Z,22.90
2019-04-04T14:42:01.892Z,21.23
2019-04-04T14:44:49.011Z,21.33
2019-04-04T14:47:35.727Z,20.83
2019-04-04T14:50:21.412Z,19.87
2019-04-04T14:53:08.505Z,21.63
2019-04-04T14:55:54.891Z,21.17
2019-04-04T14:58:40.907Z,20.23
2019-04-04T15:01:28.796Z,21.00
2019-04-04T15:04:16.951Z,20.00
2019-04-04T15:07:03.199Z,17.57
2019-04-04T15:09:50.907Z,17.87
2019-04-04T15:12:37.303Z,17.10
2019-04-04T15:15:26.178Z,16.57
2019-04-04T15:18:11.475Z,15.80
2019-04-04T15:20:58.116Z,18.60
2019-04-04T15:23:44.308Z,17.37
2019-04-04T15:26:32.935Z,17.07
2019-04-04T15:29:20.064Z,19.43
2019-04-04T15:32:10.176Z,19.93
2019-04-04T15:34:57.858Z,20.23
2019-04-04T15:37:44.087Z,19.37
2019-04-04T15:40:30.791Z,18.70
2019-04-04T15:43:17.322Z,20.57
2019-04-04T15:46:05.747Z,19.47
2019-04-04T15:48:52.904Z,19.27
2019-04-04T15:51:39.266Z,18.07
2019-04-04T15:54:26.349Z,17.93
2019-04-04T15:57:12.748Z,16.23
2019-04-04T15:59:59.056Z,18.10
2019-04-04T16:02:45.683Z,19.63
2019-04-04T16:05:31.716Z,20.40
2019-04-04T16:08:18.092Z,20.37
2019-04-04T16:11:04.403Z,18.83
2019-04-04T16:13:50.998Z,15.87
2019-04-04T16:16:39.140Z,15.93
2019-04-04T16:19:25.151Z,16.70
2019-04-04T16:22:11.348Z,16.60
2019-04-04T16:24:59.731Z,16.53
2019-04-04T16:27:49.124Z,18.07
2019-04-04T16:30:35.619Z,15.60
2019-04-04T16:33:22.103Z,16.73
2019-04-04T16:36:08.599Z,16.50
2019-04-04T16:38:54.298Z,16.83
2019-04-04T16:41:41.117Z,17.80
2019-04-04T16:44:27.303Z,17.20
2019-04-04T16:47:13.556Z,17.80
2019-04-04T16:49:59.799Z,18.03
2019-04-04T16:52:45.903Z,17.70
2019-04-04T16:55:32.415Z,21.70
2019-04-04T16:58:18.726Z,18.73
2019-04-04T17:01:05.646Z,16.47
2019-04-04T17:04:01.711Z,18.03
2019-04-04T17:06:45.211Z,17.20
2019-04-04T17:09:31.384Z,19.23
2019-04-04T17:12:17.779Z,18.50
2019-04-04T17:15:04.522Z,21.67
2019-04-04T17:17:50.860Z,19.03
2019-04-04T17:20:37.159Z,18.50
2019-04-04T17:23:25.719Z,18.63
2019-04-04T17:26:12.041Z,19.90
2019-04-04T17:28:57.910Z,19.07
2019-04-04T17:31:44.551Z,18.90
2019-04-04T17:34:30.814Z,19.43
2019-04-04T17:37:33.304Z,20.60
2019-04-04T17:40:19.403Z,19.97
2019-04-04T17:43:07.027Z,20.67
2019-04-04T17:45:53.652Z,22.00
2019-04-04T17:48:39.600Z,21.13
2019-04-04T17:51:26.081Z,22.37
2019-04-04T17:54:13.121Z,20.33
2019-04-04T17:56:59.401Z,22.90
2019-04-04T17:59:45.384Z,23.67
2019-04-04T18:02:32.111Z,22.07
2019-04-04T18:05:18.544Z,23.20
2019-04-04T18:08:04.736Z,23.50
2019-04-04T18:10:51.650Z,22.70
2019-04-04T18:13:37.645Z,24.53
2019-04-04T18:16:24.072Z,23.77
2019-04-04T18:19:10.496Z,24.23
2019-04-04T18:22:00.192Z,24.20
2019-04-04T18:24:46.604Z,23.77
2019-04-04T18:27:35.264Z,24.80
2019-04-04T18:30:21.893Z,25.90
2019-04-04T18:33:08.425Z,23.87
2019-04-04T18:35:54.624Z,25.17
2019-04-04T18:38:41.374Z,25.53
2019-04-04T18:41:27.630Z,24.73
2019-04-04T18:44:14.368Z,24.17
2019-04-04T18:47:00.668Z,24.97
2019-04-04T18:49:47.116Z,24.37
2019-04-04T18:52:35.141Z,25.13
2019-04-04T18:55:21.338Z,26.77
2019-04-04T18:58:07.335Z,28.27
2019-04-04T19:00:53.624Z,28.60
2019-04-04T19:03:40.134Z,29.57
2019-04-04T19:06:26.984Z,27.60
2019-04-04T19:09:15.285Z,23.40
2019-04-04T19:12:01.588Z,24.13
2019-04-04T19:14:48.497Z,25.77
2019-04-04T19:17:34.660Z,25.63
2019-04-04T19:20:20.908Z,23.73
2019-04-04T19:23:07.212Z,23.67
2019-04-04T19:25:55.439Z,21.27
2019-04-04T19:28:41.469Z,24.60
2019-04-04T19:31:27.476Z,21.30
2019-04-04T19:34:13.493Z,19.47
2019-04-04T19:37:00.080Z,22.23
2019-04-04T19:39:46.645Z,24.17
2019-04-04T19:42:32.951Z,25.43
2019-04-04T19:45:21.313Z,27.47
2019-04-04T19:48:07.648Z,25.67
2019-04-04T19:50:53.630Z,25.73
2019-04-04T19:53:43.016Z,26.00
2019-04-04T19:56:29.229Z,23.53
2019-04-04T19:59:15.297Z,24.40
2019-04-04T20:02:01.822Z,23.50
2019-04-04T20:04:48.571Z,24.80
2019-04-04T20:07:36.582Z,23.53
2019-04-04T20:10:22.729Z,24.50
2019-04-04T20:13:09.381Z,24.20
2019-04-04T20:15:56.740Z,23.40
2019-04-04T20:18:42.733Z,22.97
2019-04-04T20:21:29.349Z,22.50
2019-04-04T20:24:15.140Z,22.50
2019-04-04T20:27:01.441Z,21.53
2019-04-04T20:29:48.191Z,22.80
2019-04-04T20:32:34.382Z,21.80
2019-04-04T20:35:20.767Z,22.33
2019-04-04T20:38:07.165Z,22.60
2019-04-04T20:40:54.327Z,20.80
2019-04-04T20:43:43.481Z,21.47
2019-04-04T20:46:28.533Z,22.40
2019-04-04T20:49:14.737Z,23.87
2019-04-04T20:52:00.822Z,25.17
2019-04-04T20:54:47.548Z,23.50
2019-04-04T20:57:33.747Z,25.57
2019-04-04T21:00:19.717Z,23.77
2019-04-04T21:03:06.414Z,23.83
2019-04-04T21:05:52.550Z,23.00
2019-04-04T21:08:38.789Z,24.17
2019-04-04T21:11:25.973Z,25.40
2019-04-04T21:14:13.053Z,22.53
2019-04-04T21:17:01.972Z,24.80
2019-04-04T21:19:48.788Z,24.67
2019-04-04T21:22:34.814Z,25.13
2019-04-04T21:25:21.294Z,25.23
2019-04-04T21:28:08.841Z,25.87
2019-04-04T21:30:55.837Z,25.00
2019-04-04T21:33:42.058Z,25.83
2019-04-04T21:36:30.133Z,25.07
2019-04-04T21:39:16.410Z,24.97
2019-04-04T21:42:03.313Z,24.23
2019-04-04T21:44:49.951Z,24.43
2019-04-04T21:47:38.577Z,25.70
2019-04-04T21:50:25.185Z,24.77
2019-04-04T21:53:13.662Z,24.23
2019-04-04T21:55:59.552Z,25.70
2019-04-04T21:58:50.265Z,25.33
2019-04-04T22:01:36.880Z,25.33
2019-04-04T22:04:23.197Z,25.70
2019-04-04T22:07:09.686Z,27.67
2019-04-04T22:09:56.285Z,26.50
2019-04-04T22:12:42.393Z,26.60
2019-04-04T22:15:28.682Z,25.77
2019-04-04T22:18:15.450Z,27.63
2019-04-04T22:21:02.202Z,27.97
2019-04-04T22:23:48.501Z,25.10
2019-04-04T22:26:35.002Z,28.33
2019-04-04T22:29:21.420Z,28.53
2019-04-04T22:32:08.014Z,31.10
2019-04-04T22:34:54.413Z,27.37
2019-04-04T22:37:41.017Z,30.10
2019-04-04T22:40:27.829Z,29.37
2019-04-04T22:43:15.068Z,31.20
2019-04-04T22:46:00.950Z,28.87
2019-04-04T22:48:47.445Z,31.37
2019-04-04T22:51:33.962Z,29.73
2019-04-04T22:54:20.629Z,32.27
2019-04-04T22:57:09.120Z,32.97
2019-04-04T22:59:57.246Z,30.20
2019-04-04T23:02:43.447Z,31.03
2019-04-04T23:05:29.540Z,31.20
2019-04-04T23:08:16.188Z,32.33
2019-04-04T23:11:02.766Z,34.77
2019-04-04T23:13:48.812Z,36.47
2019-04-04T23:16:35.102Z,35.60
2019-04-04T23:19:21.726Z,34.67
2019-04-04T23:22:08.059Z,37.00
2019-04-04T23:24:54.770Z,37.97
2019-04-04T23:27:41.577Z,41.73
2019-04-04T23:30:28.077Z,39.93
2019-04-04T23:33:14.362Z,41.90
2019-04-04T23:36:00.280Z,42.00
2019-04-04T23:38:46.773Z,41.63
2019-04-04T23:41:34.510Z,42.63
2019-04-04T23:44:21.418Z,40.00
2019-04-04T23:47:08.942Z,43.77
2019-04-04T23:49:55.554Z,44.90
2019-04-04T23:52:41.642Z,41.57
2019-04-04T23:55:28.146Z,43.27
2019-04-04T23:58:14.585Z,46.40
